Time;durP1;ratioP1;P1;durP2;ratioP2;P2;SDS_P1;SDS_P2;PMS_P1;PMS_P2;Temp;Humidity;BMP_temperature;BMP_pressure;BME280_temperature;BME280_humidity;BME280_pressure;Samples;Min_cycle;Max_cycle;Signal;HPM_P1;HPM_P2
2022/07/03 00:01:32;;;;;;;2.93;2.27;;;;;15.90;101343.00;;;;10491996;28;20215;-76
2022/07/03 00:06:34;;;;;;;3.30;1.90;;;;;15.80;101333.00;;;;10509192;28;20686;-76
2022/07/03 00:11:36;;;;;;;2.27;2.00;;;;;15.70;101340.00;;;;10476015;28;20231;-76
2022/07/03 00:16:39;;;;;;;3.27;2.23;;;;;15.70;101335.00;;;;10508461;28;20189;-76
2022/07/03 00:21:49;;;;;;;4.33;2.47;;;;;15.60;101345.00;;;;10508205;28;20197;-77
2022/07/03 00:26:52;;;;;;;3.57;2.20;;;;;15.60;101337.00;;;;10491342;28;20189;-76
2022/07/03 00:31:55;;;;;;;4.77;2.10;;;;;15.50;101348.00;;;;10491341;28;20208;-77
2022/07/03 00:37:03;;;;;;;3.33;2.47;;;;;15.40;101331.00;;;;10490793;28;20682;-76
2022/07/03 00:42:11;;;;;;;4.07;2.30;;;;;15.40;101341.00;;;;10508086;28;20246;-77
2022/07/03 00:47:15;;;;;;;4.43;2.80;;;;;15.40;101338.00;;;;10461850;28;20244;-77
2022/07/03 00:52:19;;;;;;;3.50;2.53;;;;;15.50;101340.00;;;;10465405;28;20178;-77
2022/07/03 00:57:23;;;;;;;4.33;2.50;;;;;15.60;101333.00;;;;10471048;28;20213;-77
2022/07/03 01:02:44;;;;;;;7.57;2.93;;;;;15.70;101338.00;;;;10489706;28;20243;-77
2022/07/03 01:08:05;;;;;;;5.77;3.40;;;;;15.70;101341.00;;;;10490081;28;20740;-77
2022/07/03 01:13:17;;;;;;;3.87;2.73;;;;;15.70;101333.00;;;;10505899;28;20242;-77
2022/07/03 01:18:48;;;;;;;4.30;2.90;;;;;15.70;101337.00;;;;10489771;28;20201;-77
2022/07/03 01:24:36;;;;;;;3.23;2.77;;;;;15.70;101338.00;;;;10507131;28;20533;-77
2022/07/03 01:29:56;;;;;;;5.37;2.00;;;;;15.80;101342.00;;;;10472859;28;20644;-77
2022/07/03 01:35:01;;;;;;;6.13;1.77;;;;;15.90;101338.00;;;;10463991;28;20209;-77
2022/07/03 01:40:04;;;;;;;3.17;1.30;;;;;15.90;101327.00;;;;10448115;28;20209;-77
2022/07/03 01:45:09;;;;;;;3.33;1.63;;;;;15.80;101325.00;;;;10447095;28;20253;-77
2022/07/03 01:50:12;;;;;;;3.17;1.37;;;;;15.70;101330.00;;;;10479961;28;20706;-77
2022/07/03 01:55:15;;;;;;;3.23;1.33;;;;;15.60;101312.00;;;;10467294;28;20189;-77
2022/07/03 02:00:21;;;;;;;1.33;1.17;;;;;15.50;101317.00;;;;10462267;28;20217;-77
2022/07/03 02:05:41;;;;;;;2.50;1.23;;;;;15.50;101320.00;;;;10476407;28;20208;-77
2022/07/03 02:11:10;;;;;;;4.73;1.30;;;;;15.50;101311.00;;;;10446255;28;20204;-77
2022/07/03 02:16:18;;;;;;;2.07;1.00;;;;;15.40;101302.00;;;;10462216;28;20205;-77
2022/07/03 02:21:22;;;;;;;2.43;1.03;;;;;15.40;101298.00;;;;10445615;28;20568;-77
2022/07/03 02:26:32;;;;;;;2.27;1.10;;;;;15.30;101302.00;;;;10445574;28;20264;-77
2022/07/03 02:31:40;;;;;;;4.50;1.20;;;;;15.20;101296.00;;;;10462269;28;20201;-77
2022/07/03 02:36:49;;;;;;;1.43;1.00;;;;;15.00;101308.00;;;;10445390;28;20204;-77
2022/07/03 02:42:04;;;;;;;5.03;1.83;;;;;14.90;101304.00;;;;10478086;28;20205;-77
2022/07/03 02:47:27;;;;;;;3.30;1.40;;;;;14.90;101306.00;;;;10477381;28;20734;-77
2022/07/03 02:52:40;;;;;;;2.70;1.40;;;;;15.00;101316.00;;;;10485389;28;20196;-77
2022/07/03 02:57:43;;;;;;;1.93;1.10;;;;;15.10;101313.00;;;;10469815;28;20221;-77
2022/07/03 03:02:56;;;;;;;4.67;1.40;;;;;15.20;101319.00;;;;10485916;28;20724;-77
2022/07/03 03:08:33;;;;;;;2.60;1.30;;;;;15.20;101309.00;;;;10480673;28;20202;-77
2022/07/03 03:13:36;;;;;;;1.83;1.17;;;;;15.20;101318.00;;;;10448526;28;20212;-77
2022/07/03 03:18:39;;;;;;;2.63;1.40;;;;;15.30;101312.00;;;;10452642;28;20863;-77
2022/07/03 03:23:51;;;;;;;2.40;1.27;;;;;15.30;101311.00;;;;10469084;28;20201;-77
2022/07/03 03:28:54;;;;;;;3.50;1.37;;;;;15.40;101320.00;;;;10468926;28;20225;-77
2022/07/03 03:33:58;;;;;;;2.53;1.10;;;;;15.30;101321.00;;;;10520624;28;20309;-77
2022/07/03 03:39:00;;;;;;;1.70;0.97;;;;;15.40;101324.00;;;;10551675;28;20200;-77
2022/07/03 03:44:01;;;;;;;1.57;1.27;;;;;15.50;101331.00;;;;10518536;28;20218;-77
2022/07/03 03:49:03;;;;;;;1.90;1.17;;;;;15.50;101328.00;;;;10518005;28;20204;-77
2022/07/03 03:54:05;;;;;;;2.60;1.30;;;;;15.60;101335.00;;;;10472143;28;20193;-77
2022/07/03 03:59:08;;;;;;;5.30;1.10;;;;;15.70;101333.00;;;;10493335;28;20259;-78
2022/07/03 04:04:12;;;;;;;2.03;1.10;;;;;15.70;101333.00;;;;10470673;28;20201;-77
2022/07/03 04:09:14;;;;;;;4.60;1.33;;;;;15.70;101341.00;;;;10452049;28;20209;-77
2022/07/03 04:14:16;;;;;;;1.13;0.90;;;;;15.80;101339.00;;;;10484376;28;20269;-77
2022/07/03 04:19:18;;;;;;;2.57;1.00;;;;;15.90;101327.00;;;;10485043;28;20193;-75
2022/07/03 04:24:21;;;;;;;1.53;1.00;;;;;15.80;101324.00;;;;10507149;28;20195;-75
2022/07/03 04:29:23;;;;;;;3.57;1.20;;;;;15.70;101334.00;;;;10506624;28;20208;-75
2022/07/03 04:34:25;;;;;;;3.37;1.10;;;;;15.70;101334.00;;;;10464774;28;20208;-75
2022/07/03 04:39:27;;;;;;;1.93;1.00;;;;;15.80;101342.00;;;;10448649;28;20182;-76
2022/07/03 04:44:29;;;;;;;1.63;0.97;;;;;16.00;101345.00;;;;10447995;28;20284;-75
2022/07/03 04:49:31;;;;;;;1.10;1.00;;;;;16.30;101359.00;;;;10464487;28;20256;-75
2022/07/03 04:54:32;;;;;;;1.97;1.13;;;;;16.40;101364.00;;;;10431779;28;20197;-76
2022/07/03 04:59:34;;;;;;;3.50;1.13;;;;;16.70;101366.00;;;;10482875;28;20205;-75
2022/07/03 05:04:36;;;;;;;1.45;0.90;;;;;17.20;101368.00;;;;10495091;28;20193;-75
2022/07/03 05:09:38;;;;;;;1.55;1.30;;;;;17.50;101373.00;;;;10488751;28;20291;-75
2022/07/03 05:14:41;;;;;;;2.22;1.20;;;;;18.00;101375.00;;;;10521653;28;20259;-76
2022/07/03 05:19:42;;;;;;;2.63;1.42;;;;;18.30;101379.00;;;;10488688;28;20196;-76
2022/07/03 05:24:45;;;;;;;2.78;1.20;;;;;17.70;101374.00;;;;10489267;28;20193;-77
2022/07/03 05:29:47;;;;;;;1.92;1.30;;;;;17.80;101384.00;;;;10486899;28;20212;-76
2022/07/03 05:34:49;;;;;;;4.35;1.30;;;;;18.30;101380.00;;;;10479979;28;20199;-78
2022/07/03 05:39:51;;;;;;;3.10;1.30;;;;;18.90;101379.00;;;;10505990;28;20182;-77
2022/07/03 05:44:54;;;;;;;2.60;1.30;;;;;19.30;101382.00;;;;10522514;28;20192;-77
2022/07/03 05:49:56;;;;;;;2.45;1.70;;;;;19.20;101390.00;;;;10486831;28;20698;-77
2022/07/03 05:54:57;;;;;;;2.20;1.60;;;;;19.30;101380.00;;;;10486944;28;20246;-77
2022/07/03 06:00:00;;;;;;;2.22;1.50;;;;;19.90;101380.00;;;;10505205;28;20196;-77
2022/07/03 06:05:03;;;;;;;3.80;1.70;;;;;19.60;101381.00;;;;10470336;28;20197;-77
2022/07/03 06:10:05;;;;;;;1.63;1.48;;;;;20.00;101374.00;;;;10488064;28;20212;-77
2022/07/03 06:15:07;;;;;;;2.63;1.65;;;;;20.80;101368.00;;;;10487802;28;20251;-77
2022/07/03 06:20:10;;;;;;;2.63;1.63;;;;;20.90;101379.00;;;;10487908;28;20705;-77
2022/07/03 06:25:13;;;;;;;3.78;1.95;;;;;21.20;101374.00;;;;10487308;28;20215;-77
2022/07/03 06:30:15;;;;;;;4.03;1.83;;;;;21.00;101374.00;;;;10486014;28;20213;-74
2022/07/03 06:35:19;;;;;;;2.95;1.40;;;;;22.00;101373.00;;;;10461187;28;20568;-77
2022/07/03 06:40:26;;;;;;;4.10;1.50;;;;;22.60;101374.00;;;;10478406;28;20178;-75
2022/07/03 06:45:27;;;;;;;3.08;1.77;;;;;21.60;101388.00;;;;10443962;28;20204;-75
2022/07/03 06:50:29;;;;;;;3.65;1.30;;;;;21.30;101390.00;;;;10477363;28;20694;-75
2022/07/03 06:55:31;;;;;;;3.85;1.30;;;;;22.40;101379.00;;;;10460750;28;20194;-75
2022/07/03 07:00:34;;;;;;;2.45;1.35;;;;;23.20;101386.00;;;;10444614;28;20217;-77
2022/07/03 07:05:36;;;;;;;2.17;1.40;;;;;22.90;101400.00;;;;10474545;28;20219;-76
2022/07/03 07:10:38;;;;;;;4.35;1.80;;;;;22.90;101392.00;;;;10460508;28;20280;-75
2022/07/03 07:15:40;;;;;;;3.90;1.35;;;;;24.10;101405.00;;;;10444390;28;20198;-76
2022/07/03 07:20:42;;;;;;;4.30;1.65;;;;;23.40;101408.00;;;;10460914;28;20292;-76
2022/07/03 07:25:44;;;;;;;3.72;1.52;;;;;23.30;101405.00;;;;10454949;28;20576;-77
2022/07/03 07:30:47;;;;;;;2.83;1.50;;;;;23.30;101411.00;;;;10477420;28;20214;-76
2022/07/03 07:35:49;;;;;;;2.63;1.30;;;;;24.60;101397.00;;;;10502145;28;20195;-77
2022/07/03 07:40:51;;;;;;;3.60;1.35;;;;;25.40;101398.00;;;;10486063;28;20201;-75
2022/07/03 07:45:53;;;;;;;2.92;1.20;;;;;24.50;101410.00;;;;10519128;28;20193;-77
2022/07/03 07:50:55;;;;;;;5.10;1.25;;;;;23.10;101408.00;;;;10485132;28;20223;-76
2022/07/03 07:55:58;;;;;;;2.75;1.00;;;;;24.30;101395.00;;;;10489634;28;20204;-76
2022/07/03 08:06:20;;;;;;;3.70;1.10;;;;;25.70;101403.00;;;;10508680;28;20181;-77
2022/07/03 08:11:22;;;;;;;2.85;1.30;;;;;26.80;101400.00;;;;10491842;28;20220;-77
2022/07/03 08:16:24;;;;;;;2.55;1.10;;;;;27.70;101402.00;;;;10507981;28;20214;-77
2022/07/03 08:21:26;;;;;;;3.00;1.02;;;;;28.10;101403.00;;;;10491286;28;20189;-76
2022/07/03 08:26:28;;;;;;;4.45;1.50;;;;;28.50;101401.00;;;;10508152;28;20185;-76
2022/07/03 08:31:30;;;;;;;4.38;1.55;;;;;27.90;101404.00;;;;10500649;28;20429;-77
2022/07/03 08:36:33;;;;;;;4.22;1.38;;;;;26.40;101415.00;;;;10465356;28;20190;-76
2022/07/03 08:41:40;;;;;;;2.72;1.10;;;;;25.50;101412.00;;;;10466080;28;20194;-76
2022/07/03 08:46:44;;;;;;;3.13;1.63;;;;;25.20;101405.00;;;;10449052;28;20194;-76
2022/07/03 08:51:47;;;;;;;3.97;1.70;;;;;25.50;101398.00;;;;10448917;28;20300;-76
2022/07/03 08:56:49;;;;;;;2.80;1.10;;;;;25.40;101403.00;;;;10482049;28;20182;-76
2022/07/03 09:01:52;;;;;;;1.90;1.08;;;;;26.10;101404.00;;;;10490941;28;20278;-76
2022/07/03 09:06:54;;;;;;;2.80;1.00;;;;;27.50;101384.00;;;;10522258;28;20193;-76
2022/07/03 09:11:58;;;;;;;3.00;0.93;;;;;29.90;101390.00;;;;10505556;28;20807;-76
2022/07/03 09:17:00;;;;;;;3.63;1.15;;;;;28.60;101406.00;;;;10505551;28;20205;-76
2022/07/03 09:22:02;;;;;;;4.18;1.38;;;;;26.80;101402.00;;;;10489101;28;20196;-76
2022/07/03 09:27:15;;;;;;;3.80;0.98;;;;;26.30;101393.00;;;;10505394;28;20193;-76
2022/07/03 09:32:17;;;;;;;3.72;0.85;;;;;27.90;101408.00;;;;10515675;28;20205;-76
2022/07/03 09:37:29;;;;;;;2.70;0.80;;;;;27.70;101392.00;;;;10504809;28;20201;-76
2022/07/03 09:42:31;;;;;;;2.03;0.85;;;;;28.10;101410.00;;;;10488184;28;20189;-76
2022/07/03 09:47:34;;;;;;;2.67;0.88;;;;;27.20;101406.00;;;;10487559;28;20693;-76
2022/07/03 09:52:47;;;;;;;0.50;0.50;;;;;26.90;101410.00;;;;10472400;28;20246;-76
2022/07/03 09:57:49;;;;;;;2.47;1.02;;;;;26.30;101414.00;;;;10504142;28;20598;-76
2022/07/03 10:03:06;;;;;;;1.10;0.50;;;;;27.10;101404.00;;;;10487191;28;20250;-76
2022/07/03 10:08:12;;;;;;;2.67;0.80;;;;;29.30;101403.00;;;;10486704;28;20197;-75
2022/07/03 10:13:15;;;;;;;1.80;0.80;;;;;29.80;101417.00;;;;10486497;28;20217;-76
2022/07/03 10:18:19;;;;;;;1.35;0.82;;;;;28.10;101415.00;;;;10502667;28;20200;-76
2022/07/03 10:23:22;;;;;;;4.10;1.00;;;;;28.00;101419.00;;;;10503954;28;20216;-76
2022/07/03 10:28:24;;;;;;;1.02;0.60;;;;;26.50;101432.00;;;;10486702;28;20279;-76
2022/07/03 10:33:28;;;;;;;1.02;0.52;;;;;25.80;101435.00;;;;10502856;28;20287;-76
2022/07/03 10:38:40;;;;;;;2.33;0.85;;;;;26.10;101431.00;;;;10485979;28;20930;-76
2022/07/03 10:49:12;;;;;;;1.60;0.60;;;;;30.20;101433.00;;;;10485779;28;20235;-76
2022/07/03 10:54:22;;;;;;;2.25;0.80;;;;;30.60;101429.00;;;;10518681;28;20247;-76
2022/07/03 10:59:42;;;;;;;1.00;0.60;;;;;30.30;101437.00;;;;10467567;28;20217;-76
2022/07/03 11:04:59;;;;;;;1.17;0.45;;;;;28.80;101426.00;;;;10494443;28;20204;-76
2022/07/03 11:10:24;;;;;;;1.95;0.70;;;;;28.90;101434.00;;;;10460084;28;20213;-76
2022/07/03 11:15:33;;;;;;;2.80;0.77;;;;;27.60;101423.00;;;;10460224;28;20197;-76
2022/07/03 11:20:41;;;;;;;2.85;0.50;;;;;29.60;101407.00;;;;10444018;28;20216;-75
2022/07/03 11:25:48;;;;;;;1.77;0.93;;;;;30.60;101414.00;;;;10448036;28;20197;-76
2022/07/03 11:31:10;;;;;;;2.10;0.70;;;;;30.90;101412.00;;;;10476850;28;20204;-76
2022/07/03 11:36:15;;;;;;;2.70;0.70;;;;;31.00;101410.00;;;;10490863;28;20234;-75
2022/07/03 11:41:17;;;;;;;1.73;0.80;;;;;29.10;101426.00;;;;10479913;28;20255;-76
2022/07/03 11:46:25;;;;;;;0.55;0.47;;;;;28.00;101419.00;;;;10495264;28;20196;-76
2022/07/03 11:51:27;;;;;;;2.30;0.80;;;;;28.20;101400.00;;;;10462773;28;20598;-75
2022/07/03 11:56:31;;;;;;;1.33;0.60;;;;;30.30;101402.00;;;;10490171;22;20225;-75
2022/07/03 12:01:35;;;;;;;0.93;0.60;;;;;30.90;101420.00;;;;10441209;28;20217;-76
2022/07/03 12:06:48;;;;;;;1.13;0.57;;;;;31.30;101405.00;;;;10428804;28;20300;-76
2022/07/03 12:12:01;;;;;;;0.60;0.50;;;;;32.00;101399.00;;;;10436405;28;20218;-75
2022/07/03 12:17:03;;;;;;;2.28;0.90;;;;;32.50;101410.00;;;;10438579;28;20700;-76
2022/07/03 12:22:05;;;;;;;0.80;0.80;;;;;31.80;101409.00;;;;10460613;28;20202;-76
2022/07/03 12:27:08;;;;;;;2.92;0.85;;;;;31.60;101415.00;;;;10459624;28;20198;-75
2022/07/03 12:32:10;;;;;;;2.15;0.60;;;;;31.40;101403.00;;;;10438657;28;20692;-76
2022/07/03 12:37:12;;;;;;;1.25;0.60;;;;;30.20;101406.00;;;;10476487;28;20193;-76
2022/07/03 12:42:18;;;;;;;1.38;0.50;;;;;29.20;101415.00;;;;10476153;28;20277;-76
2022/07/03 12:47:21;;;;;;;2.13;0.60;;;;;28.10;101413.00;;;;10476437;28;20555;-76
2022/07/03 12:52:23;;;;;;;1.42;0.68;;;;;27.30;101413.00;;;;10444918;28;20683;-76
2022/07/03 13:02:49;;;;;;;0.85;0.60;;;;;29.60;101412.00;;;;10430800;28;20637;-75
2022/07/03 13:07:55;;;;;;;1.05;0.63;;;;;28.60;101413.00;;;;10448101;28;20197;-75
2022/07/03 13:12:58;;;;;;;1.90;0.85;;;;;29.10;101423.00;;;;10488567;28;20198;-76
2022/07/03 13:18:01;;;;;;;2.63;0.88;;;;;29.30;101416.00;;;;10452171;28;20197;-76
2022/07/03 13:23:05;;;;;;;5.03;0.85;;;;;28.90;101405.00;;;;10474959;28;20217;-76
2022/07/03 13:28:13;;;;;;;1.73;0.60;;;;;29.80;101403.00;;;;10442219;28;20300;-76
2022/07/03 13:33:15;;;;;;;5.82;0.75;;;;;27.20;101408.00;;;;10420716;28;20231;-76
2022/07/03 13:38:17;;;;;;;2.13;0.80;;;;;27.90;101406.00;;;;10457904;28;20221;-75
2022/07/03 13:43:19;;;;;;;1.88;0.95;;;;;28.30;101410.00;;;;10491363;28;20201;-78
2022/07/03 13:48:21;;;;;;;1.65;0.60;;;;;27.50;101408.00;;;;10442872;28;20193;-77
2022/07/03 13:53:23;;;;;;;5.65;0.90;;;;;28.10;101400.00;;;;10474508;28;20216;-77
2022/07/03 13:58:25;;;;;;;2.00;0.75;;;;;29.80;101413.00;;;;10443185;28;20301;-77
2022/07/03 14:03:28;;;;;;;1.30;0.70;;;;;28.80;101392.00;;;;10439731;28;20205;-77
2022/07/03 14:08:30;;;;;;;1.48;0.70;;;;;27.90;101407.00;;;;10460381;28;20217;-77
2022/07/03 14:13:32;;;;;;;3.10;0.75;;;;;28.70;101427.00;;;;10475754;28;20209;-77
2022/07/03 14:18:34;;;;;;;2.70;0.70;;;;;31.40;101410.00;;;;10425840;28;20219;-78
2022/07/03 14:23:36;;;;;;;2.22;0.77;;;;;33.20;101404.00;;;;10458808;28;20209;-77
2022/07/03 14:33:59;;;;;;;3.08;0.80;;;;;31.70;101407.00;;;;10440469;28;20263;-77
2022/07/03 14:39:01;;;;;;;2.13;0.70;;;;;29.30;101422.00;;;;10456960;28;20782;-77
2022/07/03 14:44:03;;;;;;;2.95;1.00;;;;;31.20;101408.00;;;;10473677;28;20193;-77
2022/07/03 14:49:05;;;;;;;3.67;0.80;;;;;35.50;101414.00;;;;10440518;28;20252;-77
2022/07/03 14:54:07;;;;;;;2.60;0.60;;;;;32.50;101429.00;;;;10439933;28;20727;-78
2022/07/03 14:59:09;;;;;;;1.20;0.50;;;;;30.80;101429.00;;;;10423523;28;20225;-77
2022/07/03 15:04:40;;;;;;;1.17;0.55;;;;;35.10;101403.00;;;;10441636;28;20205;-77
2022/07/03 15:09:54;;;;;;;1.73;0.60;;;;;33.30;101412.00;;;;10464423;28;20217;-77
2022/07/03 15:14:57;;;;;;;1.50;0.70;;;;;29.40;101429.00;;;;10448036;28;20194;-78
2022/07/03 15:20:02;;;;;;;1.75;0.70;;;;;27.10;101424.00;;;;10464342;28;20218;-78
2022/07/03 15:25:06;;;;;;;2.00;0.70;;;;;26.80;101416.00;;;;10448482;28;20202;-78
2022/07/03 15:30:10;;;;;;;1.05;0.75;;;;;27.60;101417.00;;;;10430705;28;20707;-77
2022/07/03 15:35:12;;;;;;;1.55;0.60;;;;;26.90;101421.00;;;;10409708;28;20213;-77
2022/07/03 15:40:55;;;;;;;1.20;0.50;;;;;25.90;101427.00;;;;10421728;28;20218;-78
2022/07/03 15:46:26;;;;;;;1.30;0.50;;;;;24.80;101427.00;;;;10425064;28;20582;-78
2022/07/03 15:51:45;;;;;;;1.98;0.60;;;;;23.90;101422.00;;;;10446733;28;20222;-77
2022/07/03 15:56:52;;;;;;;1.92;1.00;;;;;24.60;101425.00;;;;10464615;28;20216;-77
2022/07/03 16:02:14;;;;;;;1.48;0.80;;;;;25.40;101426.00;;;;10462278;28;20225;-76
2022/07/03 16:07:17;;;;;;;2.17;0.80;;;;;24.90;101414.00;;;;10463865;28;20204;-76
2022/07/03 16:12:22;;;;;;;4.93;0.95;;;;;23.90;101421.00;;;;10423569;28;20846;-77
2022/07/03 16:17:24;;;;;;;1.55;0.80;;;;;23.70;101424.00;;;;10421222;28;20201;-76
2022/07/03 16:22:27;;;;;;;2.90;0.98;;;;;24.20;101413.00;;;;10475395;28;20237;-77
2022/07/03 16:27:30;;;;;;;1.20;0.70;;;;;24.60;101415.00;;;;10446409;28;20258;-76
2022/07/03 16:32:44;;;;;;;1.38;0.80;;;;;23.90;101423.00;;;;10449151;28;20733;-77
2022/07/03 16:38:02;;;;;;;2.85;0.88;;;;;23.50;101410.00;;;;10429264;28;20197;-76
2022/07/03 16:43:05;;;;;;;5.03;1.20;;;;;23.80;101409.00;;;;10445286;28;20204;-77
2022/07/03 16:48:13;;;;;;;3.22;0.82;;;;;23.80;101405.00;;;;10445139;28;20721;-77
2022/07/03 16:53:20;;;;;;;3.47;1.20;;;;;23.10;101412.00;;;;10445068;28;20237;-77
2022/07/03 16:58:24;;;;;;;2.58;0.68;;;;;22.40;101415.00;;;;10461852;28;20224;-77
2022/07/03 17:03:27;;;;;;;4.07;1.02;;;;;22.40;101411.00;;;;10434705;28;20296;-77
2022/07/03 17:08:30;;;;;;;1.23;0.75;;;;;22.60;101419.00;;;;10442201;28;20236;-77
2022/07/03 17:13:32;;;;;;;2.33;0.70;;;;;22.50;101423.00;;;;10445963;28;20278;-77
2022/07/03 17:18:50;;;;;;;3.85;1.00;;;;;22.30;101423.00;;;;10445845;28;20194;-77
2022/07/03 17:23:54;;;;;;;2.60;0.82;;;;;22.60;101414.00;;;;10407761;28;20297;-77
2022/07/03 17:29:02;;;;;;;3.17;1.05;;;;;22.40;101422.00;;;;10454902;28;20209;-77
2022/07/03 17:34:08;;;;;;;2.47;0.85;;;;;22.00;101422.00;;;;10429483;28;20251;-77
2022/07/03 17:39:11;;;;;;;1.75;0.60;;;;;21.80;101432.00;;;;10443735;28;20212;-77
2022/07/03 17:44:14;;;;;;;2.08;1.08;;;;;21.50;101425.00;;;;10427388;28;20793;-77
2022/07/03 17:49:19;;;;;;;1.00;0.50;;;;;21.30;101435.00;;;;10410497;28;20243;-77
2022/07/03 17:54:24;;;;;;;1.52;0.70;;;;;21.20;101433.00;;;;10437425;28;20266;-77
2022/07/03 17:59:26;;;;;;;1.60;0.77;;;;;21.30;101437.00;;;;10399989;28;20286;-77
2022/07/03 18:04:28;;;;;;;1.90;0.82;;;;;21.60;101431.00;;;;10458557;28;20657;-77
2022/07/03 18:09:31;;;;;;;1.88;0.60;;;;;21.70;101429.00;;;;10434074;28;20209;-77
2022/07/03 18:14:42;;;;;;;1.60;0.60;;;;;21.70;101432.00;;;;10386328;28;20194;-76
2022/07/03 18:19:47;;;;;;;1.58;0.70;;;;;21.80;101432.00;;;;10385970;28;20248;-77
2022/07/03 18:24:53;;;;;;;2.30;0.75;;;;;21.40;101435.00;;;;10405170;28;20209;-77
2022/07/03 18:29:57;;;;;;;1.33;0.65;;;;;21.10;101435.00;;;;10440564;28;20263;-77
2022/07/03 18:35:01;;;;;;;1.40;0.77;;;;;21.00;101446.00;;;;10391899;28;20198;-77
2022/07/03 18:40:04;;;;;;;1.65;0.60;;;;;20.60;101451.00;;;;10418243;28;20631;-78
2022/07/03 18:45:11;;;;;;;4.15;0.80;;;;;20.30;101461.00;;;;10401916;28;20206;-77
2022/07/03 18:50:13;;;;;;;1.70;0.65;;;;;20.00;101443.00;;;;10408746;28;20226;-77
2022/07/03 18:55:26;;;;;;;1.30;0.68;;;;;19.80;101456.00;;;;10432693;28;20751;-77
2022/07/03 19:00:35;;;;;;;0.77;0.52;;;;;19.60;101458.00;;;;10424828;28;20357;-77
2022/07/03 19:05:47;;;;;;;1.70;0.70;;;;;19.50;101464.00;;;;10441794;28;20259;-77
2022/07/03 19:10:56;;;;;;;2.55;0.65;;;;;19.40;101462.00;;;;10425065;28;20227;-77
2022/07/03 19:16:02;;;;;;;1.45;0.68;;;;;19.30;101450.00;;;;10429052;28;20190;-77
2022/07/03 19:21:04;;;;;;;0.93;0.80;;;;;19.50;101445.00;;;;10414506;28;20201;-77
2022/07/03 19:26:06;;;;;;;3.83;0.88;;;;;19.30;101455.00;;;;10471441;28;20821;-77
2022/07/03 19:31:10;;;;;;;3.80;0.85;;;;;19.20;101457.00;;;;10424163;28;20791;-77
2022/07/03 19:36:12;;;;;;;1.33;0.80;;;;;19.00;101471.00;;;;10456841;28;20194;-77
2022/07/03 19:41:14;;;;;;;2.05;0.80;;;;;18.70;101469.00;;;;10427601;28;21066;-77
2022/07/03 19:46:16;;;;;;;2.80;1.00;;;;;18.40;101479.00;;;;10445732;28;20257;-76
2022/07/03 19:51:19;;;;;;;2.67;0.60;;;;;18.10;101494.00;;;;10435256;28;20213;-77
2022/07/03 19:56:21;;;;;;;2.78;1.20;;;;;17.90;101496.00;;;;10424640;28;20233;-77
2022/07/03 20:01:23;;;;;;;2.35;0.95;;;;;17.70;101506.00;;;;10426650;28;20217;-77
2022/07/03 20:06:25;;;;;;;2.92;1.10;;;;;17.50;101514.00;;;;10430750;28;20201;-77
2022/07/03 20:11:29;;;;;;;2.60;1.07;;;;;17.20;101506.00;;;;10455281;28;20217;-76
2022/07/03 20:16:31;;;;;;;2.75;1.10;;;;;16.90;101513.00;;;;10424914;28;20200;-76
2022/07/03 20:21:33;;;;;;;1.10;0.65;;;;;16.70;101519.00;;;;10445299;28;20284;-76
2022/07/03 20:26:36;;;;;;;0.80;0.70;;;;;16.60;101535.00;;;;10399805;28;20247;-76
2022/07/03 20:31:38;;;;;;;3.57;1.27;;;;;16.50;101542.00;;;;10463068;28;20213;-77
2022/07/03 20:36:40;;;;;;;2.67;0.67;;;;;16.40;101537.00;;;;10444414;28;20663;-77
2022/07/03 20:41:43;;;;;;;5.63;1.07;;;;;16.30;101538.00;;;;10422163;28;20198;-77
2022/07/03 20:46:45;;;;;;;3.07;0.90;;;;;16.20;101541.00;;;;10423939;28;20209;-77
2022/07/03 20:51:47;;;;;;;6.33;1.43;;;;;16.10;101539.00;;;;10422277;28;20230;-77
2022/07/03 20:56:50;;;;;;;4.60;1.70;;;;;15.90;101533.00;;;;10445234;28;20221;-76
2022/07/03 21:01:52;;;;;;;4.30;1.90;;;;;15.70;101550.00;;;;10460991;28;20218;-77
2022/07/03 21:06:55;;;;;;;5.03;1.90;;;;;15.60;101550.00;;;;10412498;28;20206;-77
2022/07/03 21:11:58;;;;;;;8.23;3.10;;;;;15.50;101554.00;;;;10463252;28;20217;-77
2022/07/03 21:17:00;;;;;;;6.60;3.13;;;;;15.40;101557.00;;;;10478943;28;20269;-78
2022/07/03 21:22:03;;;;;;;6.33;3.40;;;;;15.40;101561.00;;;;10441705;28;20290;-77
2022/07/03 21:27:05;;;;;;;4.87;2.40;;;;;15.40;101566.00;;;;10446590;28;20263;-78
2022/07/03 21:32:08;;;;;;;9.03;2.80;;;;;15.30;101559.00;;;;10412925;28;20243;-76
2022/07/03 21:37:10;;;;;;;8.60;3.90;;;;;15.20;101564.00;;;;10460488;28;20190;-77
2022/07/03 21:42:12;;;;;;;4.83;3.20;;;;;15.10;101567.00;;;;10444387;28;20201;-77
2022/07/03 21:47:20;;;;;;;6.57;3.73;;;;;15.00;101567.00;;;;10460337;28;20796;-77
2022/07/03 21:52:22;;;;;;;8.33;3.93;;;;;15.00;101569.00;;;;10436305;28;20202;-78
2022/07/03 21:57:24;;;;;;;7.73;3.47;;;;;14.90;101575.00;;;;10413225;28;20731;-77
2022/07/03 22:02:26;;;;;;;6.07;4.03;;;;;14.80;101582.00;;;;10399137;28;20201;-77
2022/07/03 22:07:29;;;;;;;11.90;4.37;;;;;14.80;101573.00;;;;10444527;28;20193;-78
2022/07/03 22:12:33;;;;;;;5.27;3.57;;;;;14.70;101572.00;;;;10443173;28;20213;-77
2022/07/03 22:17:39;;;;;;;7.83;3.73;;;;;14.70;101583.00;;;;10460095;28;20268;-77
2022/07/03 22:22:42;;;;;;;5.70;4.07;;;;;14.60;101573.00;;;;10444261;28;20281;-77
2022/07/03 22:27:44;;;;;;;5.97;3.87;;;;;14.60;101567.00;;;;10442722;28;20194;-78
2022/07/03 22:32:46;;;;;;;10.87;4.03;;;;;14.50;101557.00;;;;10471619;28;20237;-77
2022/07/03 22:37:49;;;;;;;9.33;3.87;;;;;14.40;101543.00;;;;10474691;28;20193;-77
2022/07/03 22:42:53;;;;;;;11.23;4.80;;;;;14.20;101553.00;;;;10422097;28;20248;-77
2022/07/03 22:47:55;;;;;;;6.10;3.80;;;;;14.10;101559.00;;;;10400930;28;20217;-78
2022/07/03 22:52:57;;;;;;;7.73;3.90;;;;;14.10;101568.00;;;;10417899;28;20279;-77
2022/07/03 22:57:59;;;;;;;10.00;4.00;;;;;14.00;101572.00;;;;10442943;28;20217;-77
2022/07/03 23:03:01;;;;;;;7.50;4.80;;;;;14.00;101569.00;;;;10439192;28;20747;-77
2022/07/03 23:08:04;;;;;;;11.60;5.83;;;;;13.90;101574.00;;;;10436138;28;20198;-78
2022/07/03 23:13:06;;;;;;;13.93;6.17;;;;;13.90;101569.00;;;;10395395;28;20226;-77
2022/07/03 23:18:08;;;;;;;10.23;6.43;;;;;13.80;101567.00;;;;10401204;28;20269;-77
2022/07/03 23:23:10;;;;;;;8.77;5.33;;;;;13.70;101561.00;;;;10419404;28;20700;-77
2022/07/03 23:28:12;;;;;;;8.83;5.40;;;;;13.60;101567.00;;;;10449951;28;20886;-77
2022/07/03 23:33:14;;;;;;;9.17;5.40;;;;;13.50;101566.00;;;;10445809;28;20225;-77
2022/07/03 23:38:16;;;;;;;9.50;6.27;;;;;13.40;101561.00;;;;10466543;28;20554;-78
2022/07/03 23:43:18;;;;;;;10.03;5.33;;;;;13.40;101564.00;;;;10466437;28;20201;-78
2022/07/03 23:53:40;;;;;;;10.27;5.53;;;;;13.30;101565.00;;;;10449039;28;20225;-77
2022/07/03 23:58:42;;;;;;;6.00;5.37;;;;;13.20;101577.00;;;;10429261;28;20222;-77
